Time;durP1;ratioP1;P1;durP2;ratioP2;P2;SDS_P1;SDS_P2;PMS_P1;PMS_P2;Temp;Humidity;BMP_temperature;BMP_pressure;BME280_temperature;BME280_humidity;BME280_pressure;Samples;Min_cycle;Max_cycle;Signal;HPM_P1;HPM_P2
2023/03/28 00:01:55;;;;;;;11.48;3.53;;;;;;;;;;5017685;28;20429;-88
2023/03/28 00:04:25;;;;;;;12.70;3.67;;;;;;;;;;5046807;28;20426;-88
2023/03/28 00:06:52;;;;;;;12.32;3.90;;;;;;;;;;5034332;28;20428;-88
2023/03/28 00:09:18;;;;;;;11.50;3.50;;;;;;;;;;5019930;28;20428;-87
2023/03/28 00:11:45;;;;;;;11.82;4.05;;;;;;;;;;5019747;28;20427;-88
2023/03/28 00:14:13;;;;;;;11.73;4.03;;;;;;;;;;5047731;28;20431;-88
2023/03/28 00:16:40;;;;;;;13.95;4.20;;;;;;;;;;5043219;28;20460;-88
2023/03/28 00:19:07;;;;;;;11.97;4.00;;;;;;;;;;5045284;28;20444;-88
2023/03/28 00:21:35;;;;;;;9.47;3.97;;;;;;;;;;5047574;28;20435;-88
2023/03/28 00:24:02;;;;;;;14.75;4.43;;;;;;;;;;5043744;28;20417;-88
2023/03/28 00:26:31;;;;;;;11.27;3.97;;;;;;;;;;5020757;28;20485;-88
2023/03/28 00:28:57;;;;;;;13.23;4.07;;;;;;;;;;5052058;28;20451;-88
2023/03/28 00:31:24;;;;;;;14.67;4.00;;;;;;;;;;5022398;28;20526;-79
2023/03/28 00:33:50;;;;;;;13.43;3.83;;;;;;;;;;5039959;28;20416;-79
2023/03/28 00:36:21;;;;;;;15.50;4.30;;;;;;;;;;5036302;28;20440;-79
2023/03/28 00:38:51;;;;;;;11.55;3.90;;;;;;;;;;5053263;28;20404;-79
2023/03/28 00:41:20;;;;;;;11.35;3.90;;;;;;;;;;5038217;28;20467;-79
2023/03/28 00:43:47;;;;;;;12.43;3.97;;;;;;;;;;5053668;28;20398;-79
2023/03/28 00:46:25;;;;;;;11.98;4.07;;;;;;;;;;5047834;28;20407;-79
2023/03/28 00:48:53;;;;;;;11.43;3.47;;;;;;;;;;5054542;28;20510;-79
2023/03/28 00:51:20;;;;;;;11.23;3.90;;;;;;;;;;5054690;28;20427;-79
2023/03/28 00:53:47;;;;;;;16.67;4.30;;;;;;;;;;5048137;28;20440;-79
2023/03/28 00:56:16;;;;;;;14.75;3.97;;;;;;;;;;5044099;28;20429;-79
2023/03/28 00:58:43;;;;;;;10.38;4.38;;;;;;;;;;5051959;28;20423;-79
2023/03/28 01:01:11;;;;;;;13.18;4.05;;;;;;;;;;5033774;28;20424;-79
2023/03/28 01:03:40;;;;;;;12.07;4.30;;;;;;;;;;5045014;28;20429;-79
2023/03/28 01:06:08;;;;;;;12.98;4.15;;;;;;;;;;5020436;28;20444;-80
2023/03/28 01:08:36;;;;;;;13.82;4.50;;;;;;;;;;5045877;28;20420;-80
2023/03/28 01:11:02;;;;;;;14.77;4.53;;;;;;;;;;5043320;28;20414;-80
2023/03/28 01:13:30;;;;;;;13.52;4.50;;;;;;;;;;5035476;28;20430;-80
2023/03/28 01:15:58;;;;;;;13.35;4.75;;;;;;;;;;5046428;28;20416;-81
2023/03/28 01:18:24;;;;;;;14.30;4.90;;;;;;;;;;5019740;28;20420;-82
2023/03/28 01:21:06;;;;;;;12.73;4.73;;;;;;;;;;5051134;28;20424;-81
2023/03/28 01:23:50;;;;;;;16.35;5.10;;;;;;;;;;5059725;28;20415;-81
2023/03/28 01:26:22;;;;;;;15.07;4.70;;;;;;;;;;5056569;28;20415;-81
2023/03/28 01:28:48;;;;;;;12.48;5.00;;;;;;;;;;5047261;28;20432;-81
2023/03/28 01:31:40;;;;;;;12.82;4.80;;;;;;;;;;5052122;28;20411;-81
2023/03/28 01:34:25;;;;;;;13.80;5.43;;;;;;;;;;5052010;28;20447;-81
2023/03/28 01:36:58;;;;;;;17.05;5.43;;;;;;;;;;5018791;28;20422;-80
2023/03/28 01:39:24;;;;;;;15.50;5.60;;;;;;;;;;5051911;28;20420;-80
2023/03/28 01:41:55;;;;;;;14.43;5.18;;;;;;;;;;5034159;28;20432;-81
2023/03/28 01:44:33;;;;;;;12.82;5.50;;;;;;;;;;5058278;28;20420;-80
2023/03/28 01:47:08;;;;;;;12.95;5.57;;;;;;;;;;5043974;28;20428;-80
2023/03/28 01:49:45;;;;;;;13.60;5.68;;;;;;;;;;5052129;28;20412;-80
2023/03/28 01:52:10;;;;;;;14.53;5.90;;;;;;;;;;5051644;28;20444;-80
2023/03/28 01:54:57;;;;;;;15.88;5.93;;;;;;;;;;5053465;28;20477;-81
2023/03/28 01:57:26;;;;;;;15.35;6.22;;;;;;;;;;5045336;28;20412;-81
2023/03/28 01:59:55;;;;;;;14.10;5.90;;;;;;;;;;5038186;28;20422;-82
2023/03/28 02:02:28;;;;;;;15.60;6.65;;;;;;;;;;5050607;28;20428;-81
2023/03/28 02:04:56;;;;;;;17.23;6.37;;;;;;;;;;5052077;28;20411;-81
2023/03/28 02:07:23;;;;;;;14.98;5.85;;;;;;;;;;5052449;28;20415;-81
2023/03/28 02:09:51;;;;;;;14.00;6.10;;;;;;;;;;5016178;28;20479;-81
2023/03/28 02:12:21;;;;;;;14.90;6.55;;;;;;;;;;5060769;28;20453;-80
2023/03/28 02:14:48;;;;;;;15.60;6.33;;;;;;;;;;5035049;28;20420;-80
2023/03/28 02:17:15;;;;;;;15.35;6.15;;;;;;;;;;5054086;28;20409;-80
2023/03/28 02:19:49;;;;;;;14.43;6.28;;;;;;;;;;5035459;28;20507;-80
2023/03/28 02:22:15;;;;;;;15.80;6.27;;;;;;;;;;5034984;28;20435;-80
2023/03/28 02:24:41;;;;;;;14.35;5.82;;;;;;;;;;5035598;28;20408;-80
2023/03/28 02:27:07;;;;;;;14.57;6.15;;;;;;;;;;5018681;28;21478;-80
2023/03/28 02:29:35;;;;;;;15.43;6.40;;;;;;;;;;5015172;28;20434;-80
2023/03/28 02:32:02;;;;;;;14.38;6.18;;;;;;;;;;5051036;28;20415;-80
2023/03/28 02:34:28;;;;;;;13.48;6.20;;;;;;;;;;5018573;28;20426;-80
2023/03/28 02:37:04;;;;;;;16.23;6.60;;;;;;;;;;5051280;28;20415;-80
2023/03/28 02:39:34;;;;;;;16.05;6.60;;;;;;;;;;5051514;28;20428;-81
2023/03/28 02:42:08;;;;;;;12.65;6.13;;;;;;;;;;5044996;28;20430;-81
2023/03/28 02:44:54;;;;;;;15.60;6.68;;;;;;;;;;5056446;28;20421;-82
2023/03/28 02:47:40;;;;;;;14.57;6.68;;;;;;;;;;5032008;28;20410;-82
2023/03/28 02:50:25;;;;;;;16.63;6.30;;;;;;;;;;5025023;28;20416;-82
2023/03/28 02:52:50;;;;;;;15.30;6.18;;;;;;;;;;5043105;28;20516;-82
2023/03/28 02:55:20;;;;;;;12.70;6.20;;;;;;;;;;5048989;28;20487;-82
2023/03/28 02:58:21;;;;;;;11.70;6.25;;;;;;;;;;5035397;28;20404;-82
2023/03/28 03:00:48;;;;;;;15.32;6.50;;;;;;;;;;4940205;29;20432;-88
2023/03/28 03:03:15;;;;;;;14.05;6.53;;;;;;;;;;5035952;28;20479;-88
2023/03/28 03:05:41;;;;;;;17.70;6.93;;;;;;;;;;5056334;28;20400;-89
2023/03/28 03:08:08;;;;;;;14.88;6.90;;;;;;;;;;5022026;28;20485;-88
2023/03/28 03:10:34;;;;;;;15.13;7.03;;;;;;;;;;5022560;28;20420;-89
2023/03/28 03:13:00;;;;;;;15.43;7.20;;;;;;;;;;5055339;28;20403;-89
2023/03/28 03:15:29;;;;;;;16.98;7.15;;;;;;;;;;5021964;28;20408;-89
2023/03/28 03:17:55;;;;;;;13.75;6.50;;;;;;;;;;5022285;28;20408;-88
2023/03/28 03:20:21;;;;;;;12.50;6.60;;;;;;;;;;5022007;28;20447;-89
2023/03/28 03:22:47;;;;;;;18.17;7.05;;;;;;;;;;5021948;28;20496;-88
2023/03/28 03:25:14;;;;;;;13.95;6.50;;;;;;;;;;5021967;28;20404;-88
2023/03/28 03:27:41;;;;;;;15.65;7.00;;;;;;;;;;5021625;28;20412;-88
2023/03/28 03:30:08;;;;;;;14.38;6.88;;;;;;;;;;5022108;28;20491;-89
2023/03/28 03:32:35;;;;;;;15.73;7.40;;;;;;;;;;5054497;28;20435;-89
2023/03/28 03:35:01;;;;;;;13.70;6.57;;;;;;;;;;5037977;28;20416;-81
2023/03/28 03:37:27;;;;;;;21.20;7.60;;;;;;;;;;5054965;28;20396;-81
2023/03/28 03:39:53;;;;;;;18.05;8.15;;;;;;;;;;5054506;28;20408;-81
2023/03/28 03:42:19;;;;;;;19.27;7.80;;;;;;;;;;5054203;28;20423;-80
2023/03/28 03:44:45;;;;;;;18.35;7.43;;;;;;;;;;5021310;28;20549;-80
2023/03/28 03:47:12;;;;;;;16.73;7.85;;;;;;;;;;5021448;28;20408;-80
2023/03/28 03:49:38;;;;;;;15.75;7.63;;;;;;;;;;5054833;28;20407;-80
2023/03/28 03:52:04;;;;;;;15.80;7.85;;;;;;;;;;5017739;28;20414;-82
2023/03/28 03:54:30;;;;;;;16.13;7.45;;;;;;;;;;5034760;28;20453;-82
2023/03/28 03:56:56;;;;;;;19.20;8.15;;;;;;;;;;5034351;28;20409;-82
2023/03/28 03:59:22;;;;;;;17.23;8.13;;;;;;;;;;5034615;28;20476;-82
2023/03/28 04:01:49;;;;;;;17.50;7.70;;;;;;;;;;5034195;28;20429;-81
2023/03/28 04:04:15;;;;;;;19.67;7.72;;;;;;;;;;5033533;28;20406;-81
2023/03/28 04:06:41;;;;;;;18.10;8.53;;;;;;;;;;5033952;28;20416;-82
2023/03/28 04:09:07;;;;;;;15.02;7.93;;;;;;;;;;5038476;28;20408;-81
2023/03/28 04:11:34;;;;;;;16.57;8.00;;;;;;;;;;5045151;28;20417;-81
2023/03/28 04:14:00;;;;;;;16.20;8.15;;;;;;;;;;5044347;28;20432;-81
2023/03/28 04:16:26;;;;;;;15.80;8.18;;;;;;;;;;5017293;28;20475;-81
2023/03/28 04:18:52;;;;;;;18.20;9.30;;;;;;;;;;5017202;28;20481;-81
2023/03/28 04:21:20;;;;;;;15.93;8.95;;;;;;;;;;5026079;28;20427;-81
2023/03/28 04:23:47;;;;;;;16.23;8.43;;;;;;;;;;5053070;28;20444;-80
2023/03/28 04:26:14;;;;;;;21.23;9.40;;;;;;;;;;5035809;28;20558;-80
2023/03/28 04:28:40;;;;;;;14.32;8.90;;;;;;;;;;5040334;28;20498;-80
2023/03/28 04:31:06;;;;;;;19.40;9.80;;;;;;;;;;5036386;28;20487;-80
2023/03/28 04:33:33;;;;;;;16.00;9.10;;;;;;;;;;5039871;28;20422;-81
2023/03/28 04:36:00;;;;;;;19.63;9.30;;;;;;;;;;5039108;28;20472;-81
2023/03/28 04:38:30;;;;;;;20.45;9.82;;;;;;;;;;5042316;28;20507;-82
2023/03/28 04:40:57;;;;;;;19.75;9.30;;;;;;;;;;5062763;28;20432;-80
2023/03/28 04:43:24;;;;;;;19.70;9.50;;;;;;;;;;5053161;28;20456;-80
2023/03/28 04:45:50;;;;;;;20.00;9.73;;;;;;;;;;5036473;28;20412;-80
2023/03/28 04:48:16;;;;;;;16.08;9.25;;;;;;;;;;5036236;28;21201;-80
2023/03/28 04:50:42;;;;;;;19.65;9.75;;;;;;;;;;5020213;28;20404;-80
2023/03/28 04:53:08;;;;;;;20.83;9.95;;;;;;;;;;5041233;28;20435;-80
2023/03/28 04:55:34;;;;;;;17.38;9.77;;;;;;;;;;5020351;28;20566;-81
2023/03/28 04:58:00;;;;;;;19.02;10.38;;;;;;;;;;5020110;28;20407;-80
2023/03/28 05:00:26;;;;;;;18.45;9.93;;;;;;;;;;5015996;28;20424;-82
2023/03/28 05:02:58;;;;;;;18.15;9.65;;;;;;;;;;5016466;28;20428;-82
2023/03/28 05:05:25;;;;;;;20.75;10.40;;;;;;;;;;5032830;28;20401;-81
2023/03/28 05:07:51;;;;;;;18.42;10.05;;;;;;;;;;5019664;28;20490;-82
2023/03/28 05:10:17;;;;;;;18.77;10.02;;;;;;;;;;5035808;28;20554;-81
2023/03/28 05:12:43;;;;;;;19.77;10.10;;;;;;;;;;5035728;28;20415;-81
2023/03/28 05:15:12;;;;;;;17.35;9.95;;;;;;;;;;5018929;28;20467;-80
2023/03/28 05:17:39;;;;;;;17.70;10.13;;;;;;;;;;5020176;28;20470;-81
2023/03/28 05:20:08;;;;;;;19.00;9.50;;;;;;;;;;5053499;28;20403;-79
2023/03/28 05:22:35;;;;;;;18.42;9.88;;;;;;;;;;5053572;28;20427;-79
2023/03/28 05:25:01;;;;;;;18.33;10.20;;;;;;;;;;5020137;28;20465;-79
2023/03/28 05:27:27;;;;;;;18.20;9.88;;;;;;;;;;5016772;28;20410;-80
2023/03/28 05:29:53;;;;;;;17.30;10.77;;;;;;;;;;5046127;28;20419;-80
2023/03/28 05:32:19;;;;;;;21.58;11.63;;;;;;;;;;5016122;28;20408;-88
2023/03/28 05:34:45;;;;;;;23.73;12.77;;;;;;;;;;5019081;28;20458;-88
2023/03/28 05:37:12;;;;;;;15.83;9.80;;;;;;;;;;5016023;28;20489;-89
2023/03/28 05:39:38;;;;;;;19.48;9.77;;;;;;;;;;5032302;28;20409;-88
2023/03/28 05:42:04;;;;;;;20.58;9.40;;;;;;;;;;5016087;28;20429;-88
2023/03/28 05:44:31;;;;;;;21.90;9.73;;;;;;;;;;5032403;28;20406;-88
2023/03/28 05:46:57;;;;;;;17.50;9.52;;;;;;;;;;5015921;28;20465;-80
2023/03/28 05:49:23;;;;;;;18.83;9.80;;;;;;;;;;5016290;28;20410;-80
2023/03/28 05:51:49;;;;;;;19.50;9.73;;;;;;;;;;5018964;28;20466;-80
2023/03/28 05:54:15;;;;;;;19.88;10.70;;;;;;;;;;5008803;28;20441;-80
2023/03/28 05:56:41;;;;;;;19.63;10.60;;;;;;;;;;5032065;28;20484;-80
2023/03/28 05:59:07;;;;;;;19.92;10.57;;;;;;;;;;5041669;28;20410;-80
2023/03/28 06:01:33;;;;;;;22.13;10.25;;;;;;;;;;5016935;28;20479;-80
2023/03/28 06:03:59;;;;;;;19.60;10.18;;;;;;;;;;5048360;28;20424;-79
2023/03/28 06:06:26;;;;;;;18.98;10.05;;;;;;;;;;5033866;28;20427;-79
2023/03/28 06:08:52;;;;;;;17.17;8.77;;;;;;;;;;5034167;28;20504;-79
2023/03/28 06:11:18;;;;;;;17.67;9.13;;;;;;;;;;5017360;28;20424;-80
2023/03/28 06:13:44;;;;;;;17.80;8.65;;;;;;;;;;5034721;28;20424;-80
2023/03/28 06:16:10;;;;;;;13.43;8.47;;;;;;;;;;5018377;28;20438;-79
2023/03/28 06:18:36;;;;;;;16.67;7.90;;;;;;;;;;5040335;28;20437;-80
2023/03/28 06:21:02;;;;;;;15.48;8.10;;;;;;;;;;5019969;28;20547;-79
2023/03/28 06:23:28;;;;;;;15.02;8.25;;;;;;;;;;5034686;28;20436;-78
2023/03/28 06:25:54;;;;;;;15.13;7.80;;;;;;;;;;5035683;28;20420;-78
2023/03/28 06:28:21;;;;;;;15.57;8.07;;;;;;;;;;5039146;28;20415;-78
2023/03/28 06:30:48;;;;;;;13.93;7.35;;;;;;;;;;5055806;28;20411;-78
2023/03/28 06:33:14;;;;;;;14.93;7.70;;;;;;;;;;5057352;28;20392;-80
2023/03/28 06:35:40;;;;;;;15.32;7.50;;;;;;;;;;5056540;28;20903;-80
2023/03/28 06:38:06;;;;;;;13.75;6.97;;;;;;;;;;5024995;28;20411;-80
2023/03/28 06:40:32;;;;;;;13.35;6.93;;;;;;;;;;5055552;28;20404;-80
2023/03/28 06:42:58;;;;;;;14.15;7.20;;;;;;;;;;5055414;28;20396;-79
2023/03/28 06:45:24;;;;;;;13.27;6.27;;;;;;;;;;5038361;28;20415;-79
2023/03/28 06:47:50;;;;;;;16.60;6.77;;;;;;;;;;5035719;28;20416;-79
2023/03/28 06:50:16;;;;;;;13.43;6.60;;;;;;;;;;5039126;28;20408;-79
2023/03/28 06:52:42;;;;;;;14.20;6.88;;;;;;;;;;5021759;28;20485;-80
2023/03/28 06:55:09;;;;;;;13.60;6.60;;;;;;;;;;5022663;28;20412;-79
2023/03/28 06:57:35;;;;;;;14.40;6.32;;;;;;;;;;5022308;28;20409;-79
2023/03/28 07:00:01;;;;;;;11.95;6.05;;;;;;;;;;5021873;28;20410;-79
2023/03/28 07:02:27;;;;;;;14.37;5.37;;;;;;;;;;5039087;28;20292;-78
2023/03/28 07:04:54;;;;;;;14.60;5.80;;;;;;;;;;5044035;28;20463;-79
2023/03/28 07:07:21;;;;;;;11.47;5.50;;;;;;;;;;5029647;28;20264;-79
2023/03/28 07:09:48;;;;;;;10.27;5.70;;;;;;;;;;5019471;28;20173;-78
2023/03/28 07:12:15;;;;;;;10.80;5.23;;;;;;;;;;5022428;28;20191;-87
2023/03/28 07:14:43;;;;;;;12.63;5.63;;;;;;;;;;5040032;28;20176;-87
2023/03/28 07:17:10;;;;;;;13.43;5.23;;;;;;;;;;5057363;28;20178;-88
2023/03/28 07:19:36;;;;;;;12.73;5.00;;;;;;;;;;5022811;28;20274;-87
2023/03/28 07:22:02;;;;;;;7.70;5.30;;;;;;;;;;5056442;28;20291;-87
2023/03/28 07:24:28;;;;;;;13.17;5.13;;;;;;;;;;5038713;28;20188;-87
2023/03/28 07:26:54;;;;;;;10.32;5.15;;;;;;;;;;5038270;28;20426;-87
2023/03/28 07:29:20;;;;;;;12.38;5.50;;;;;;;;;;5055368;28;20412;-87
2023/03/28 07:31:46;;;;;;;9.53;5.30;;;;;;;;;;5039037;28;20184;-87
2023/03/28 07:34:14;;;;;;;12.10;5.13;;;;;;;;;;5055458;28;20187;-87
2023/03/28 07:36:40;;;;;;;12.20;5.33;;;;;;;;;;5055130;28;20180;-87
2023/03/28 07:39:07;;;;;;;11.70;5.10;;;;;;;;;;5021375;28;20188;-87
2023/03/28 07:41:33;;;;;;;10.27;4.47;;;;;;;;;;5054293;28;20207;-88
2023/03/28 07:43:59;;;;;;;8.17;4.47;;;;;;;;;;5055616;28;20186;-89
2023/03/28 07:46:26;;;;;;;9.17;4.47;;;;;;;;;;5055307;28;20182;-89
2023/03/28 07:48:52;;;;;;;11.40;4.10;;;;;;;;;;5021149;28;20177;-88
2023/03/28 07:51:18;;;;;;;10.93;4.93;;;;;;;;;;5009975;28;20220;-89
2023/03/28 07:53:44;;;;;;;12.73;4.70;;;;;;;;;;5019861;28;20237;-89
2023/03/28 07:56:11;;;;;;;9.07;5.00;;;;;;;;;;5039831;28;20199;-89
2023/03/28 07:58:40;;;;;;;16.63;6.20;;;;;;;;;;5040784;28;20482;-89
2023/03/28 08:01:08;;;;;;;12.73;5.40;;;;;;;;;;5046958;28;20211;-89
2023/03/28 08:03:34;;;;;;;14.13;5.85;;;;;;;;;;5036842;28;20459;-86
2023/03/28 08:06:01;;;;;;;8.93;4.93;;;;;;;;;;5037820;28;20179;-87
2023/03/28 08:08:27;;;;;;;10.50;5.37;;;;;;;;;;5028754;23;20247;-87
2023/03/28 08:10:54;;;;;;;10.40;4.97;;;;;;;;;;5034624;28;20188;-87
2023/03/28 08:13:20;;;;;;;11.60;5.70;;;;;;;;;;5051168;28;20180;-86
2023/03/28 08:15:49;;;;;;;11.47;5.33;;;;;;;;;;5036934;28;20188;-87
2023/03/28 08:18:19;;;;;;;10.40;4.50;;;;;;;;;;5037910;28;20218;-80
2023/03/28 08:20:46;;;;;;;12.15;4.70;;;;;;;;;;5021172;28;20419;-81
2023/03/28 08:23:12;;;;;;;10.38;4.18;;;;;;;;;;5020861;28;20414;-80
2023/03/28 08:25:38;;;;;;;14.80;5.00;;;;;;;;;;5020923;28;20404;-78
2023/03/28 08:28:04;;;;;;;11.97;4.23;;;;;;;;;;5038107;28;20176;-79
2023/03/28 08:30:30;;;;;;;13.53;4.30;;;;;;;;;;5020800;28;20188;-78
2023/03/28 08:32:56;;;;;;;11.77;4.47;;;;;;;;;;5055080;28;20262;-78
2023/03/28 08:35:22;;;;;;;7.23;3.63;;;;;;;;;;5037402;28;20189;-79
2023/03/28 08:37:51;;;;;;;9.67;4.10;;;;;;;;;;5037412;28;20180;-80
2023/03/28 08:40:19;;;;;;;13.93;4.33;;;;;;;;;;5037078;28;20188;-80
2023/03/28 08:42:57;;;;;;;10.23;4.53;;;;;;;;;;5036509;28;20208;-79
2023/03/28 08:45:30;;;;;;;9.87;3.90;;;;;;;;;;5054598;28;20180;-80
2023/03/28 08:47:56;;;;;;;9.63;3.70;;;;;;;;;;5055182;28;20176;-80
2023/03/28 08:50:28;;;;;;;11.33;3.60;;;;;;;;;;5033443;28;20239;-80
2023/03/28 08:52:54;;;;;;;9.33;3.90;;;;;;;;;;5050094;28;20183;-80
2023/03/28 08:55:23;;;;;;;8.30;3.30;;;;;;;;;;5054171;28;20187;-80
2023/03/28 08:57:53;;;;;;;8.97;3.43;;;;;;;;;;5047034;28;20187;-81
2023/03/28 09:00:26;;;;;;;9.97;3.50;;;;;;;;;;5045979;28;20187;-78
2023/03/28 09:02:52;;;;;;;9.03;3.60;;;;;;;;;;5036133;28;20208;-78
2023/03/28 09:05:41;;;;;;;6.87;2.90;;;;;;;;;;5035478;28;20173;-78
2023/03/28 09:08:19;;;;;;;10.00;3.03;;;;;;;;;;5033283;28;20224;-89
2023/03/28 09:10:50;;;;;;;9.37;2.83;;;;;;;;;;5017244;28;20204;-88
2023/03/28 09:13:28;;;;;;;7.77;3.00;;;;;;;;;;5034703;28;20179;-88
2023/03/28 09:15:58;;;;;;;6.10;2.73;;;;;;;;;;5034404;28;20208;-88
2023/03/28 09:18:43;;;;;;;7.27;2.30;;;;;;;;;;5036944;28;20176;-88
2023/03/28 09:21:16;;;;;;;6.53;2.43;;;;;;;;;;5054647;28;20221;-88
2023/03/28 09:23:54;;;;;;;10.20;2.77;;;;;;;;;;5047390;28;20188;-80
2023/03/28 09:26:24;;;;;;;7.40;2.90;;;;;;;;;;5048853;28;20179;-80
2023/03/28 09:28:50;;;;;;;6.23;2.70;;;;;;;;;;5036700;28;20180;-80
2023/03/28 09:31:18;;;;;;;6.70;2.53;;;;;;;;;;5036741;28;20186;-80
2023/03/28 09:33:46;;;;;;;5.50;2.60;;;;;;;;;;5054209;28;20187;-80
2023/03/28 09:36:14;;;;;;;8.47;2.60;;;;;;;;;;5036263;28;20219;-80
2023/03/28 09:38:46;;;;;;;8.20;3.03;;;;;;;;;;5036606;28;20183;-80
2023/03/28 09:41:16;;;;;;;6.70;2.90;;;;;;;;;;5054019;28;20207;-89
2023/03/28 09:43:46;;;;;;;7.20;2.87;;;;;;;;;;5036069;28;20198;-90
2023/03/28 09:46:31;;;;;;;8.07;2.60;;;;;;;;;;5035696;28;20183;-89
2023/03/28 09:48:58;;;;;;;8.27;2.90;;;;;;;;;;5036402;28;20184;-89
2023/03/28 09:51:24;;;;;;;6.33;2.87;;;;;;;;;;5018754;28;20226;-87
2023/03/28 09:53:50;;;;;;;8.17;2.80;;;;;;;;;;5017610;28;20196;-87
2023/03/28 09:56:31;;;;;;;6.67;2.97;;;;;;;;;;5035631;28;20218;-87
2023/03/28 09:58:59;;;;;;;8.53;3.20;;;;;;;;;;5027696;28;20245;-79
2023/03/28 10:01:34;;;;;;;5.00;3.07;;;;;;;;;;5017251;28;20212;-79
2023/03/28 10:04:01;;;;;;;6.57;2.93;;;;;;;;;;5045261;28;20183;-80
2023/03/28 10:06:31;;;;;;;5.57;2.90;;;;;;;;;;5040368;28;20180;-80
2023/03/28 10:09:09;;;;;;;11.57;4.00;;;;;;;;;;5057873;28;20247;-80
2023/03/28 10:11:55;;;;;;;7.90;3.40;;;;;;;;;;5040262;28;20233;-80
2023/03/28 10:14:30;;;;;;;11.00;4.07;;;;;;;;;;5057973;28;20262;-81
2023/03/28 10:16:57;;;;;;;9.03;4.07;;;;;;;;;;5057577;28;20180;-81
2023/03/28 10:19:25;;;;;;;6.70;3.97;;;;;;;;;;5040086;28;20179;-87
2023/03/28 10:21:51;;;;;;;3.77;2.70;;;;;;;;;;5040114;28;20212;-87
2023/03/28 10:24:20;;;;;;;7.23;2.47;;;;;;;;;;5057648;28;20168;-87
2023/03/28 10:26:46;;;;;;;7.33;2.60;;;;;;;;;;5057922;28;20168;-87
2023/03/28 10:29:13;;;;;;;5.97;2.60;;;;;;;;;;5018827;28;20180;-87
2023/03/28 10:31:45;;;;;;;6.70;2.70;;;;;;;;;;5026552;28;20192;-80
2023/03/28 10:34:24;;;;;;;6.83;3.07;;;;;;;;;;5047976;28;20180;-80
2023/03/28 10:36:50;;;;;;;7.27;3.77;;;;;;;;;;5035461;28;20195;-80
2023/03/28 10:39:22;;;;;;;7.80;3.27;;;;;;;;;;5039173;28;20199;-80
2023/03/28 10:41:56;;;;;;;7.17;3.50;;;;;;;;;;5039384;28;20208;-80
2023/03/28 10:44:34;;;;;;;7.13;3.30;;;;;;;;;;5039287;28;20172;-88
2023/03/28 10:47:05;;;;;;;7.93;3.23;;;;;;;;;;5039661;28;20183;-81
2023/03/28 10:49:40;;;;;;;9.10;3.40;;;;;;;;;;5039694;28;20275;-82
2023/03/28 10:52:29;;;;;;;8.30;2.97;;;;;;;;;;5047825;28;20188;-82
2023/03/28 10:55:06;;;;;;;7.80;3.03;;;;;;;;;;5037037;28;20176;-82
2023/03/28 10:57:45;;;;;;;5.50;2.90;;;;;;;;;;5034647;28;20187;-83
2023/03/28 11:00:26;;;;;;;7.07;3.40;;;;;;;;;;5033443;28;20238;-83
2023/03/28 11:02:52;;;;;;;6.73;3.37;;;;;;;;;;5024282;28;20216;-83
2023/03/28 11:05:34;;;;;;;8.00;3.30;;;;;;;;;;5039973;28;20176;-82
2023/03/28 11:08:09;;;;;;;6.90;3.50;;;;;;;;;;5038798;28;20334;-82
2023/03/28 11:10:55;;;;;;;8.57;3.40;;;;;;;;;;5055193;28;20187;-82
2023/03/28 11:13:36;;;;;;;6.70;3.20;;;;;;;;;;5038048;28;20176;-82
2023/03/28 11:16:10;;;;;;;3.90;2.83;;;;;;;;;;5039513;28;20180;-82
2023/03/28 11:18:50;;;;;;;3.60;2.70;;;;;;;;;;5038701;28;20187;-82
2023/03/28 11:21:20;;;;;;;9.57;3.27;;;;;;;;;;5056411;28;20211;-89
2023/03/28 11:23:52;;;;;;;6.90;2.60;;;;;;;;;;5056540;28;20169;-82
2023/03/28 11:26:27;;;;;;;7.90;3.27;;;;;;;;;;5038799;28;20195;-82
2023/03/28 11:29:08;;;;;;;8.13;2.90;;;;;;;;;;5038887;28;20179;-82
2023/03/28 11:31:37;;;;;;;8.40;3.00;;;;;;;;;;5039492;28;20257;-81
2023/03/28 11:34:06;;;;;;;5.67;2.67;;;;;;;;;;5056173;28;20176;-80
2023/03/28 11:36:35;;;;;;;7.30;3.00;;;;;;;;;;5056408;28;20274;-81
2023/03/28 11:39:05;;;;;;;5.53;2.60;;;;;;;;;;5038296;28;20180;-80
2023/03/28 11:41:35;;;;;;;6.37;2.73;;;;;;;;;;5033763;28;20207;-80
2023/03/28 11:44:37;;;;;;;6.73;2.80;;;;;;;;;;5035242;28;20181;-81
2023/03/28 11:47:18;;;;;;;9.27;3.30;;;;;;;;;;4982281;28;20178;-81
2023/03/28 11:49:55;;;;;;;8.35;3.08;;;;;;;;;;5031553;28;20433;-81
2023/03/28 11:52:25;;;;;;;6.10;3.30;;;;;;;;;;5035204;28;20176;-81
2023/03/28 11:54:51;;;;;;;8.80;3.60;;;;;;;;;;5035160;28;20211;-82
2023/03/28 11:57:28;;;;;;;5.33;3.30;;;;;;;;;;5047392;28;20215;-81
2023/03/28 12:00:03;;;;;;;5.27;2.77;;;;;;;;;;5038567;28;20187;-81
2023/03/28 12:02:29;;;;;;;5.93;2.60;;;;;;;;;;5037815;28;20290;-81
2023/03/28 12:05:18;;;;;;;6.93;2.83;;;;;;;;;;5037437;28;20215;-81
2023/03/28 12:08:03;;;;;;;7.00;3.00;;;;;;;;;;5037773;28;20219;-81
2023/03/28 12:10:34;;;;;;;6.47;2.87;;;;;;;;;;5054912;28;20183;-81
2023/03/28 12:13:03;;;;;;;7.30;2.67;;;;;;;;;;5054107;28;20188;-81
2023/03/28 12:15:34;;;;;;;7.43;2.80;;;;;;;;;;5037695;28;20195;-81
2023/03/28 12:18:03;;;;;;;5.33;2.63;;;;;;;;;;5037999;28;20180;-81
2023/03/28 12:20:37;;;;;;;6.40;2.80;;;;;;;;;;5023143;28;20247;-81
2023/03/28 12:23:08;;;;;;;8.63;3.43;;;;;;;;;;5034632;28;20322;-81
2023/03/28 12:25:40;;;;;;;9.17;2.83;;;;;;;;;;5034244;28;20185;-81
2023/03/28 12:28:09;;;;;;;5.93;2.57;;;;;;;;;;5034788;28;20177;-81
2023/03/28 12:30:39;;;;;;;6.00;2.67;;;;;;;;;;5049130;28;20263;-81
2023/03/28 12:33:21;;;;;;;7.17;2.47;;;;;;;;;;5047679;28;20192;-81
2023/03/28 12:35:48;;;;;;;8.53;2.80;;;;;;;;;;5032078;28;20183;-81
2023/03/28 12:38:17;;;;;;;5.60;2.63;;;;;;;;;;5055259;28;20190;-81
2023/03/28 12:40:53;;;;;;;6.40;3.27;;;;;;;;;;5036466;28;20253;-81
2023/03/28 12:43:23;;;;;;;5.30;2.83;;;;;;;;;;5037432;28;20188;-81
2023/03/28 12:45:53;;;;;;;4.27;2.87;;;;;;;;;;5037821;28;20179;-89
2023/03/28 12:48:27;;;;;;;5.27;2.80;;;;;;;;;;5031041;28;20191;-88
2023/03/28 12:50:58;;;;;;;5.47;2.70;;;;;;;;;;5037388;28;20239;-88
2023/03/28 12:53:24;;;;;;;7.87;2.63;;;;;;;;;;5028169;28;20225;-88
2023/03/28 12:55:51;;;;;;;10.80;3.47;;;;;;;;;;5021063;28;20289;-89
2023/03/28 12:58:25;;;;;;;6.23;3.30;;;;;;;;;;5037235;28;20207;-89
2023/03/28 13:00:51;;;;;;;6.90;3.17;;;;;;;;;;5053696;28;20179;-80
2023/03/28 13:03:36;;;;;;;4.70;2.90;;;;;;;;;;5028160;28;20177;-79
2023/03/28 13:06:08;;;;;;;5.20;3.00;;;;;;;;;;5034857;28;20210;-79
2023/03/28 13:08:40;;;;;;;6.13;3.40;;;;;;;;;;5054362;28;20235;-79
2023/03/28 13:11:09;;;;;;;9.47;3.43;;;;;;;;;;5036813;28;20188;-80
2023/03/28 13:13:43;;;;;;;7.30;3.40;;;;;;;;;;5037024;28;20176;-81
2023/03/28 13:16:13;;;;;;;8.07;3.57;;;;;;;;;;5053768;28;20251;-80
2023/03/28 13:19:03;;;;;;;5.97;3.60;;;;;;;;;;5054559;28;20243;-81
2023/03/28 13:21:46;;;;;;;7.93;3.83;;;;;;;;;;5053098;28;20212;-81
2023/03/28 13:24:25;;;;;;;8.93;3.60;;;;;;;;;;5053233;28;20180;-81
2023/03/28 13:26:54;;;;;;;7.30;3.47;;;;;;;;;;5052628;28;20183;-81
2023/03/28 13:29:20;;;;;;;7.50;3.63;;;;;;;;;;5036458;28;20184;-81
2023/03/28 13:31:47;;;;;;;10.13;3.63;;;;;;;;;;5053936;28;20208;-81
2023/03/28 13:34:27;;;;;;;7.53;3.70;;;;;;;;;;5017333;28;20188;-79
2023/03/28 13:36:54;;;;;;;7.37;3.53;;;;;;;;;;5053801;28;20187;-79
2023/03/28 13:39:22;;;;;;;6.23;3.90;;;;;;;;;;5054314;28;20179;-79
2023/03/28 13:41:48;;;;;;;7.70;4.13;;;;;;;;;;5036833;28;20207;-80
2023/03/28 13:44:22;;;;;;;6.60;3.80;;;;;;;;;;5035598;28;20184;-79
2023/03/28 13:46:49;;;;;;;8.33;3.77;;;;;;;;;;5053954;28;20180;-80
2023/03/28 13:49:20;;;;;;;9.03;3.90;;;;;;;;;;5014275;28;20185;-79
2023/03/28 13:51:52;;;;;;;11.30;4.00;;;;;;;;;;5054348;28;20172;-87
2023/03/28 13:54:18;;;;;;;6.40;3.97;;;;;;;;;;5039110;28;20207;-81
2023/03/28 13:56:45;;;;;;;9.10;3.70;;;;;;;;;;5032959;28;20195;-81
2023/03/28 13:59:31;;;;;;;11.07;4.33;;;;;;;;;;5043670;28;20187;-82
2023/03/28 14:01:59;;;;;;;8.40;3.83;;;;;;;;;;5029492;28;20272;-81
2023/03/28 14:04:26;;;;;;;6.87;3.67;;;;;;;;;;5048285;28;20222;-81
2023/03/28 14:06:53;;;;;;;9.47;4.17;;;;;;;;;;5053703;28;20187;-79
2023/03/28 14:09:31;;;;;;;8.93;4.30;;;;;;;;;;5035970;28;20223;-80
2023/03/28 14:11:58;;;;;;;5.57;3.37;;;;;;;;;;5036588;28;20179;-79
2023/03/28 14:14:24;;;;;;;6.40;3.60;;;;;;;;;;5053757;28;20180;-80
2023/03/28 14:16:51;;;;;;;10.53;4.00;;;;;;;;;;5042622;28;20275;-80
2023/03/28 14:19:19;;;;;;;7.67;3.80;;;;;;;;;;5016644;28;20177;-80
2023/03/28 14:21:46;;;;;;;8.70;3.60;;;;;;;;;;5027711;28;20264;-81
2023/03/28 14:24:21;;;;;;;8.27;3.33;;;;;;;;;;5036179;28;20241;-82
2023/03/28 14:26:47;;;;;;;5.47;3.20;;;;;;;;;;5035824;28;20185;-82
2023/03/28 14:29:16;;;;;;;7.17;3.10;;;;;;;;;;5036016;28;20176;-81
2023/03/28 14:31:46;;;;;;;8.10;2.87;;;;;;;;;;5035063;28;20188;-82
2023/03/28 14:34:22;;;;;;;6.93;3.40;;;;;;;;;;5032666;28;20193;-81
2023/03/28 14:36:58;;;;;;;6.00;3.27;;;;;;;;;;5016258;28;20176;-81
2023/03/28 14:39:25;;;;;;;7.73;3.10;;;;;;;;;;5033572;28;20211;-82
2023/03/28 14:41:52;;;;;;;7.20;3.27;;;;;;;;;;5016368;28;20222;-81
2023/03/28 14:44:18;;;;;;;7.80;3.60;;;;;;;;;;5030840;28;20227;-82
2023/03/28 14:46:48;;;;;;;8.53;3.37;;;;;;;;;;5031535;28;20193;-82
2023/03/28 14:49:17;;;;;;;4.60;3.27;;;;;;;;;;5048756;28;20256;-82